sensor_id;sensor_type;location;lat;lon;timestamp;pressure;altitude;pressure_sealevel;temperature;humidity
61963;BME280;47927;42.646;23.096;2022-07-29T00:02:09;92398.81;;;17.92;68.82
61963;BME280;47927;42.646;23.096;2022-07-29T00:04:35;92359.06;;;18.06;67.44
61963;BME280;47927;42.646;23.096;2022-07-29T00:07:02;92391.50;;;18.27;67.11
61963;BME280;47927;42.646;23.096;2022-07-29T00:09:28;92396.34;;;18.52;66.44
61963;BME280;47927;42.646;23.096;2022-07-29T00:11:54;92401.91;;;18.81;65.31
61963;BME280;47927;42.646;23.096;2022-07-29T00:14:22;92408.22;;;18.87;65.04
61963;BME280;47927;42.646;23.096;2022-07-29T00:16:47;92414.44;;;18.97;64.51
61963;BME280;47927;42.646;23.096;2022-07-29T00:19:13;92417.63;;;18.88;64.73
61963;BME280;47927;42.646;23.096;2022-07-29T00:21:38;92421.28;;;18.94;64.58
61963;BME280;47927;42.646;23.096;2022-07-29T00:24:05;92424.72;;;18.91;64.23
61963;BME280;47927;42.646;23.096;2022-07-29T00:26:30;92422.97;;;18.84;64.95
61963;BME280;47927;42.646;23.096;2022-07-29T00:29:02;92411.44;;;18.51;66.22
61963;BME280;47927;42.646;23.096;2022-07-29T00:31:28;92411.00;;;18.56;65.10
61963;BME280;47927;42.646;23.096;2022-07-29T00:33:53;92420.66;;;18.63;64.97
61963;BME280;47927;42.646;23.096;2022-07-29T00:36:19;92418.72;;;18.67;64.39
61963;BME280;47927;42.646;23.096;2022-07-29T00:38:50;92409.56;;;18.75;64.75
61963;BME280;47927;42.646;23.096;2022-07-29T00:41:17;92402.72;;;18.78;63.69
61963;BME280;47927;42.646;23.096;2022-07-29T00:43:43;92395.50;;;18.35;65.00
61963;BME280;47927;42.646;23.096;2022-07-29T00:46:09;92397.97;;;18.22;65.60
61963;BME280;47927;42.646;23.096;2022-07-29T00:48:34;92402.66;;;18.34;65.79
61963;BME280;47927;42.646;23.096;2022-07-29T00:51:05;92393.38;;;18.50;65.31
61963;BME280;47927;42.646;23.096;2022-07-29T00:53:31;92401.69;;;18.48;65.32
61963;BME280;47927;42.646;23.096;2022-07-29T00:55:58;92384.31;;;18.51;64.82
61963;BME280;47927;42.646;23.096;2022-07-29T00:58:24;92390.56;;;18.60;64.31
61963;BME280;47927;42.646;23.096;2022-07-29T01:00:52;92376.56;;;18.63;63.92
61963;BME280;47927;42.646;23.096;2022-07-29T01:03:17;92375.06;;;18.62;63.46
61963;BME280;47927;42.646;23.096;2022-07-29T01:05:44;92379.59;;;18.62;63.87
61963;BME280;47927;42.646;23.096;2022-07-29T01:08:12;92376.94;;;18.42;64.98
61963;BME280;47927;42.646;23.096;2022-07-29T01:10:39;92374.84;;;18.53;64.59
61963;BME280;47927;42.646;23.096;2022-07-29T01:13:06;92381.69;;;18.51;63.46
61963;BME280;47927;42.646;23.096;2022-07-29T01:15:34;92376.00;;;18.52;63.18
61963;BME280;47927;42.646;23.096;2022-07-29T01:18:11;92377.81;;;18.55;62.98
61963;BME280;47927;42.646;23.096;2022-07-29T01:24:14;92364.72;;;18.28;63.86
61963;BME280;47927;42.646;23.096;2022-07-29T01:26:57;92375.69;;;17.76;66.20
61963;BME280;47927;42.646;23.096;2022-07-29T01:37:43;92377.38;;;18.37;64.42
61963;BME280;47927;42.646;23.096;2022-07-29T01:40:41;92376.53;;;18.20;65.48
61963;BME280;47927;42.646;23.096;2022-07-29T01:43:17;92367.88;;;18.19;64.61
61963;BME280;47927;42.646;23.096;2022-07-29T01:45:53;92367.28;;;18.32;64.26
61963;BME280;47927;42.646;23.096;2022-07-29T01:48:24;92350.50;;;18.22;64.65
61963;BME280;47927;42.646;23.096;2022-07-29T01:51:01;92364.19;;;18.37;64.49
61963;BME280;47927;42.646;23.096;2022-07-29T01:53:51;92367.94;;;18.39;64.42
61963;BME280;47927;42.646;23.096;2022-07-29T01:56:19;92370.34;;;18.30;64.83
61963;BME280;47927;42.646;23.096;2022-07-29T01:58:48;92360.81;;;18.13;65.77
61963;BME280;47927;42.646;23.096;2022-07-29T02:01:15;92364.31;;;18.06;66.21
61963;BME280;47927;42.646;23.096;2022-07-29T02:03:44;92350.41;;;18.06;66.17
61963;BME280;47927;42.646;23.096;2022-07-29T02:06:11;92364.44;;;18.22;65.65
61963;BME280;47927;42.646;23.096;2022-07-29T02:08:38;92364.63;;;18.35;65.07
61963;BME280;47927;42.646;23.096;2022-07-29T02:11:05;92355.09;;;18.41;63.91
61963;BME280;47927;42.646;23.096;2022-07-29T02:13:34;92350.56;;;18.42;63.92
61963;BME280;47927;42.646;23.096;2022-07-29T02:16:02;92352.03;;;18.19;64.55
61963;BME280;47927;42.646;23.096;2022-07-29T02:18:30;92346.03;;;17.95;65.88
61963;BME280;47927;42.646;23.096;2022-07-29T02:20:58;92344.03;;;17.80;66.56
61963;BME280;47927;42.646;23.096;2022-07-29T02:23:25;92336.50;;;17.78;66.66
61963;BME280;47927;42.646;23.096;2022-07-29T02:25:54;92334.47;;;17.89;66.62
61963;BME280;47927;42.646;23.096;2022-07-29T02:28:22;92334.53;;;18.09;65.97
61963;BME280;47927;42.646;23.096;2022-07-29T02:30:51;92337.03;;;18.16;65.52
61963;BME280;47927;42.646;23.096;2022-07-29T02:33:18;92331.53;;;18.31;65.54
61963;BME280;47927;42.646;23.096;2022-07-29T02:35:46;92325.66;;;18.43;64.84
61963;BME280;47927;42.646;23.096;2022-07-29T02:38:14;92327.84;;;18.48;65.07
61963;BME280;47927;42.646;23.096;2022-07-29T02:41:01;92323.97;;;18.53;64.37
61963;BME280;47927;42.646;23.096;2022-07-29T02:43:30;92326.56;;;18.56;64.01
61963;BME280;47927;42.646;23.096;2022-07-29T02:45:56;92324.03;;;18.49;64.11
61963;BME280;47927;42.646;23.096;2022-07-29T02:48:29;92331.78;;;18.60;63.64
61963;BME280;47927;42.646;23.096;2022-07-29T02:51:13;92323.84;;;18.60;63.33
61963;BME280;47927;42.646;23.096;2022-07-29T02:53:46;92336.72;;;18.34;63.87
61963;BME280;47927;42.646;23.096;2022-07-29T02:56:16;92324.13;;;18.22;64.32
61963;BME280;47927;42.646;23.096;2022-07-29T02:58:52;92330.38;;;18.32;63.94
61963;BME280;47927;42.646;23.096;2022-07-29T03:01:25;92330.78;;;18.30;64.41
61963;BME280;47927;42.646;23.096;2022-07-29T03:03:54;92330.56;;;17.97;65.05
61963;BME280;47927;42.646;23.096;2022-07-29T03:06:24;92330.44;;;18.05;64.96
61963;BME280;47927;42.646;23.096;2022-07-29T03:08:51;92337.84;;;18.13;64.56
61963;BME280;47927;42.646;23.096;2022-07-29T03:11:17;92328.00;;;17.94;64.81
61963;BME280;47927;42.646;23.096;2022-07-29T03:13:44;92329.13;;;17.66;66.08
61963;BME280;47927;42.646;23.096;2022-07-29T03:16:10;92338.81;;;17.72;66.17
61963;BME280;47927;42.646;23.096;2022-07-29T03:18:37;92334.16;;;17.84;65.93
61963;BME280;47927;42.646;23.096;2022-07-29T03:21:03;92332.50;;;17.93;65.64
61963;BME280;47927;42.646;23.096;2022-07-29T03:23:29;92340.53;;;18.10;65.46
61963;BME280;47927;42.646;23.096;2022-07-29T03:25:55;92344.72;;;18.07;65.09
61963;BME280;47927;42.646;23.096;2022-07-29T03:28:21;92339.31;;;18.14;64.94
61963;BME280;47927;42.646;23.096;2022-07-29T03:30:47;92342.22;;;18.24;64.82
61963;BME280;47927;42.646;23.096;2022-07-29T03:33:13;92347.59;;;18.16;65.19
61963;BME280;47927;42.646;23.096;2022-07-29T03:35:38;92349.25;;;18.30;64.85
61963;BME280;47927;42.646;23.096;2022-07-29T03:38:04;92351.34;;;18.39;64.17
61963;BME280;47927;42.646;23.096;2022-07-29T03:40:40;92348.31;;;18.40;63.70
61963;BME280;47927;42.646;23.096;2022-07-29T03:43:08;92349.19;;;18.34;63.75
61963;BME280;47927;42.646;23.096;2022-07-29T03:45:36;92349.97;;;18.31;63.67
61963;BME280;47927;42.646;23.096;2022-07-29T03:48:08;92348.38;;;18.37;63.83
61963;BME280;47927;42.646;23.096;2022-07-29T03:50:35;92350.56;;;18.42;63.83
61963;BME280;47927;42.646;23.096;2022-07-29T03:53:02;92345.84;;;18.53;63.60
61963;BME280;47927;42.646;23.096;2022-07-29T03:55:30;92344.88;;;18.63;63.94
61963;BME280;47927;42.646;23.096;2022-07-29T03:57:59;92355.53;;;18.80;63.71
61963;BME280;47927;42.646;23.096;2022-07-29T04:00:26;92350.94;;;18.84;63.35
61963;BME280;47927;42.646;23.096;2022-07-29T04:02:52;92354.53;;;18.74;63.84
61963;BME280;47927;42.646;23.096;2022-07-29T04:05:18;92357.91;;;18.94;62.95
61963;BME280;47927;42.646;23.096;2022-07-29T04:07:45;92361.56;;;19.20;62.66
61963;BME280;47927;42.646;23.096;2022-07-29T04:10:11;92362.44;;;19.33;62.22
61963;BME280;47927;42.646;23.096;2022-07-29T04:12:36;92363.50;;;19.36;61.79
61963;BME280;47927;42.646;23.096;2022-07-29T04:15:03;92365.28;;;19.23;62.42
61963;BME280;47927;42.646;23.096;2022-07-29T04:17:29;92359.56;;;19.97;61.42
61963;BME280;47927;42.646;23.096;2022-07-29T04:19:55;92356.78;;;21.08;59.57
61963;BME280;47927;42.646;23.096;2022-07-29T04:22:20;92363.53;;;22.40;56.87
61963;BME280;47927;42.646;23.096;2022-07-29T04:24:46;92362.72;;;23.31;53.93
61963;BME280;47927;42.646;23.096;2022-07-29T04:27:11;92365.88;;;24.69;49.93
61963;BME280;47927;42.646;23.096;2022-07-29T04:29:37;92372.97;;;25.88;48.43
61963;BME280;47927;42.646;23.096;2022-07-29T04:32:03;92373.91;;;26.33;46.02
61963;BME280;47927;42.646;23.096;2022-07-29T04:34:28;92380.53;;;26.71;45.55
61963;BME280;47927;42.646;23.096;2022-07-29T04:36:54;92379.56;;;27.52;45.26
61963;BME280;47927;42.646;23.096;2022-07-29T04:39:20;92383.25;;;28.20;41.92
61963;BME280;47927;42.646;23.096;2022-07-29T04:41:46;92387.56;;;28.67;41.87
61963;BME280;47927;42.646;23.096;2022-07-29T04:44:12;92383.13;;;28.29;41.30
61963;BME280;47927;42.646;23.096;2022-07-29T04:46:38;92382.59;;;28.25;41.05
61963;BME280;47927;42.646;23.096;2022-07-29T04:49:03;92379.25;;;28.09;40.21
61963;BME280;47927;42.646;23.096;2022-07-29T04:51:29;92388.34;;;27.82;42.85
61963;BME280;47927;42.646;23.096;2022-07-29T04:53:55;92393.13;;;27.34;42.21
61963;BME280;47927;42.646;23.096;2022-07-29T04:56:20;92394.03;;;26.92;44.61
61963;BME280;47927;42.646;23.096;2022-07-29T04:58:46;92391.94;;;26.96;44.26
61963;BME280;47927;42.646;23.096;2022-07-29T05:01:11;92385.69;;;27.14;43.06
61963;BME280;47927;42.646;23.096;2022-07-29T05:03:37;92387.91;;;27.15;45.49
61963;BME280;47927;42.646;23.096;2022-07-29T05:06:02;92392.34;;;27.18;43.16
61963;BME280;47927;42.646;23.096;2022-07-29T05:08:28;92385.94;;;27.25;44.96
61963;BME280;47927;42.646;23.096;2022-07-29T05:10:53;92381.41;;;27.61;42.95
61963;BME280;47927;42.646;23.096;2022-07-29T05:13:19;92382.59;;;28.25;40.74
61963;BME280;47927;42.646;23.096;2022-07-29T05:15:45;92381.47;;;28.87;40.41
61963;BME280;47927;42.646;23.096;2022-07-29T05:18:10;92386.91;;;29.39;39.02
61963;BME280;47927;42.646;23.096;2022-07-29T05:20:36;92391.13;;;30.41;37.04
61963;BME280;47927;42.646;23.096;2022-07-29T05:23:02;92390.31;;;31.54;34.29
61963;BME280;47927;42.646;23.096;2022-07-29T05:25:29;92386.38;;;33.15;31.97
61963;BME280;47927;42.646;23.096;2022-07-29T05:27:55;92392.56;;;34.72;29.72
61963;BME280;47927;42.646;23.096;2022-07-29T05:30:21;92391.72;;;36.23;26.41
61963;BME280;47927;42.646;23.096;2022-07-29T05:32:47;92406.72;;;36.83;25.77
61963;BME280;47927;42.646;23.096;2022-07-29T05:35:13;92396.44;;;37.29;26.03
61963;BME280;47927;42.646;23.096;2022-07-29T05:37:39;92398.00;;;37.24;25.17
61963;BME280;47927;42.646;23.096;2022-07-29T05:40:06;92401.25;;;38.33;24.63
61963;BME280;47927;42.646;23.096;2022-07-29T05:42:32;92409.59;;;39.21;22.50
61963;BME280;47927;42.646;23.096;2022-07-29T05:44:57;92408.59;;;40.22;21.94
61963;BME280;47927;42.646;23.096;2022-07-29T05:47:23;92414.00;;;39.83;23.04
61963;BME280;47927;42.646;23.096;2022-07-29T05:49:49;92412.75;;;40.76;21.10
61963;BME280;47927;42.646;23.096;2022-07-29T05:52:15;92417.19;;;41.28;21.10
61963;BME280;47927;42.646;23.096;2022-07-29T05:54:41;92417.00;;;42.24;18.97
61963;BME280;47927;42.646;23.096;2022-07-29T05:57:07;92416.38;;;42.16;19.04
61963;BME280;47927;42.646;23.096;2022-07-29T05:59:37;92418.56;;;41.84;20.50
61963;BME280;47927;42.646;23.096;2022-07-29T06:02:03;92410.47;;;41.61;19.29
61963;BME280;47927;42.646;23.096;2022-07-29T06:04:31;92418.44;;;42.07;20.00
61963;BME280;47927;42.646;23.096;2022-07-29T06:06:56;92424.53;;;41.58;20.38
61963;BME280;47927;42.646;23.096;2022-07-29T06:09:22;92417.72;;;43.09;17.99
61963;BME280;47927;42.646;23.096;2022-07-29T06:11:48;92426.94;;;44.20;18.14
61963;BME280;47927;42.646;23.096;2022-07-29T06:14:13;92424.44;;;44.05;17.61
61963;BME280;47927;42.646;23.096;2022-07-29T06:16:39;92420.84;;;43.58;17.91
61963;BME280;47927;42.646;23.096;2022-07-29T06:19:05;92426.03;;;44.45;17.10
61963;BME280;47927;42.646;23.096;2022-07-29T06:21:32;92417.38;;;44.11;16.20
61963;BME280;47927;42.646;23.096;2022-07-29T06:23:57;92415.09;;;44.64;17.27
61963;BME280;47927;42.646;23.096;2022-07-29T06:26:23;92426.22;;;44.20;16.49
61963;BME280;47927;42.646;23.096;2022-07-29T06:28:48;92408.34;;;43.64;17.12
61963;BME280;47927;42.646;23.096;2022-07-29T06:31:14;92411.22;;;42.20;18.46
61963;BME280;47927;42.646;23.096;2022-07-29T06:33:39;92414.09;;;41.24;20.63
61963;BME280;47927;42.646;23.096;2022-07-29T06:36:05;92408.03;;;40.77;20.86
61963;BME280;47927;42.646;23.096;2022-07-29T06:38:33;92414.41;;;39.36;21.55
61963;BME280;47927;42.646;23.096;2022-07-29T06:40:58;92415.16;;;39.44;22.23
61963;BME280;47927;42.646;23.096;2022-07-29T06:43:38;92417.47;;;39.92;21.70
61963;BME280;47927;42.646;23.096;2022-07-29T06:46:14;92413.16;;;40.35;21.23
61963;BME280;47927;42.646;23.096;2022-07-29T06:48:42;92408.28;;;41.19;20.63
61963;BME280;47927;42.646;23.096;2022-07-29T06:51:09;92421.34;;;42.77;19.59
61963;BME280;47927;42.646;23.096;2022-07-29T06:53:35;92416.78;;;42.97;18.31
61963;BME280;47927;42.646;23.096;2022-07-29T06:56:02;92416.41;;;44.26;17.92
61963;BME280;47927;42.646;23.096;2022-07-29T06:58:29;92424.63;;;44.53;16.89
61963;BME280;47927;42.646;23.096;2022-07-29T07:00:56;92418.34;;;44.33;17.31
61963;BME280;47927;42.646;23.096;2022-07-29T07:03:21;92421.06;;;42.65;18.82
61963;BME280;47927;42.646;23.096;2022-07-29T07:05:47;92417.31;;;40.82;21.04
61963;BME280;47927;42.646;23.096;2022-07-29T07:08:13;92421.69;;;39.05;22.19
61963;BME280;47927;42.646;23.096;2022-07-29T07:10:39;92412.56;;;37.61;24.30
61963;BME280;47927;42.646;23.096;2022-07-29T07:13:05;92415.97;;;37.75;24.93
61963;BME280;47927;42.646;23.096;2022-07-29T07:15:31;92413.19;;;36.53;26.06
61963;BME280;47927;42.646;23.096;2022-07-29T07:17:56;92421.97;;;36.14;27.85
61963;BME280;47927;42.646;23.096;2022-07-29T07:20:25;92423.03;;;36.24;26.81
61963;BME280;47927;42.646;23.096;2022-07-29T07:22:51;92417.22;;;37.74;25.82
61963;BME280;47927;42.646;23.096;2022-07-29T07:25:16;92420.44;;;39.50;23.00
61963;BME280;47927;42.646;23.096;2022-07-29T07:27:43;92413.78;;;41.60;20.96
61963;BME280;47927;42.646;23.096;2022-07-29T07:30:10;92419.34;;;42.95;18.36
61963;BME280;47927;42.646;23.096;2022-07-29T07:32:36;92415.97;;;42.87;19.38
61963;BME280;47927;42.646;23.096;2022-07-29T07:35:06;92423.91;;;44.16;18.42
61963;BME280;47927;42.646;23.096;2022-07-29T07:37:32;92420.03;;;44.29;18.26
61963;BME280;47927;42.646;23.096;2022-07-29T07:39:57;92416.00;;;44.76;17.27
61963;BME280;47927;42.646;23.096;2022-07-29T07:42:23;92421.66;;;44.98;17.14
61963;BME280;47927;42.646;23.096;2022-07-29T07:44:49;92419.94;;;45.12;16.93
61963;BME280;47927;42.646;23.096;2022-07-29T07:47:15;92418.78;;;44.86;17.42
61963;BME280;47927;42.646;23.096;2022-07-29T07:49:46;92422.19;;;45.94;15.53
61963;BME280;47927;42.646;23.096;2022-07-29T07:52:12;92419.78;;;45.49;16.67
61963;BME280;47927;42.646;23.096;2022-07-29T07:54:37;92414.16;;;45.18;16.38
61963;BME280;47927;42.646;23.096;2022-07-29T07:57:03;92413.78;;;45.82;16.82
61963;BME280;47927;42.646;23.096;2022-07-29T07:59:28;92416.28;;;45.68;16.75
61963;BME280;47927;42.646;23.096;2022-07-29T08:01:54;92411.09;;;45.53;16.62
61963;BME280;47927;42.646;23.096;2022-07-29T08:04:19;92411.97;;;45.55;16.27
61963;BME280;47927;42.646;23.096;2022-07-29T08:06:45;92418.47;;;45.11;17.11
61963;BME280;47927;42.646;23.096;2022-07-29T08:09:11;92420.19;;;45.65;16.85
61963;BME280;47927;42.646;23.096;2022-07-29T08:11:36;92421.75;;;44.71;17.64
61963;BME280;47927;42.646;23.096;2022-07-29T08:14:02;92418.59;;;45.42;17.13
61963;BME280;47927;42.646;23.096;2022-07-29T08:16:27;92415.22;;;45.83;17.60
61963;BME280;47927;42.646;23.096;2022-07-29T08:18:53;92421.31;;;45.81;16.44
61963;BME280;47927;42.646;23.096;2022-07-29T08:21:23;92413.25;;;45.54;16.45
61963;BME280;47927;42.646;23.096;2022-07-29T08:23:49;92414.72;;;44.97;16.96
61963;BME280;47927;42.646;23.096;2022-07-29T08:26:17;92421.34;;;45.03;17.24
61963;BME280;47927;42.646;23.096;2022-07-29T08:28:44;92420.63;;;45.42;17.35
61963;BME280;47927;42.646;23.096;2022-07-29T08:31:11;92419.06;;;45.58;16.32
61963;BME280;47927;42.646;23.096;2022-07-29T08:33:37;92415.59;;;45.29;18.23
61963;BME280;47927;42.646;23.096;2022-07-29T08:36:03;92413.16;;;45.13;16.75
61963;BME280;47927;42.646;23.096;2022-07-29T08:38:28;92411.84;;;45.14;18.47
61963;BME280;47927;42.646;23.096;2022-07-29T08:40:54;92407.63;;;44.84;17.85
61963;BME280;47927;42.646;23.096;2022-07-29T08:43:20;92408.19;;;45.60;17.31
61963;BME280;47927;42.646;23.096;2022-07-29T08:45:47;92410.22;;;45.31;16.45
61963;BME280;47927;42.646;23.096;2022-07-29T08:48:14;92396.66;;;45.23;17.19
61963;BME280;47927;42.646;23.096;2022-07-29T08:50:42;92402.00;;;45.21;17.98
61963;BME280;47927;42.646;23.096;2022-07-29T08:53:12;92402.41;;;46.07;17.32
61963;BME280;47927;42.646;23.096;2022-07-29T08:55:40;92401.56;;;45.05;16.49
61963;BME280;47927;42.646;23.096;2022-07-29T08:58:08;92401.41;;;44.27;17.31
61963;BME280;47927;42.646;23.096;2022-07-29T09:00:36;92400.66;;;44.73;17.15
61963;BME280;47927;42.646;23.096;2022-07-29T09:03:03;92398.50;;;44.25;17.24
61963;BME280;47927;42.646;23.096;2022-07-29T09:05:31;92403.41;;;44.73;17.16
61963;BME280;47927;42.646;23.096;2022-07-29T09:07:57;92397.78;;;44.91;17.20
61963;BME280;47927;42.646;23.096;2022-07-29T09:10:22;92397.22;;;44.92;16.44
61963;BME280;47927;42.646;23.096;2022-07-29T09:12:48;92403.00;;;44.30;19.04
61963;BME280;47927;42.646;23.096;2022-07-29T09:15:14;92402.53;;;44.24;18.59
61963;BME280;47927;42.646;23.096;2022-07-29T09:17:44;92398.13;;;44.39;18.03
61963;BME280;47927;42.646;23.096;2022-07-29T09:20:19;92395.53;;;44.41;18.37
61963;BME280;47927;42.646;23.096;2022-07-29T09:22:45;92395.38;;;44.02;17.52
61963;BME280;47927;42.646;23.096;2022-07-29T09:25:38;92399.34;;;44.18;17.26
61963;BME280;47927;42.646;23.096;2022-07-29T09:30:33;92388.28;;;43.72;19.04
61963;BME280;47927;42.646;23.096;2022-07-29T09:33:00;92397.25;;;43.99;18.81
61963;BME280;47927;42.646;23.096;2022-07-29T09:35:27;92390.34;;;42.32;18.52
61963;BME280;47927;42.646;23.096;2022-07-29T09:37:53;92391.78;;;42.33;19.68
61963;BME280;47927;42.646;23.096;2022-07-29T09:40:21;92387.03;;;42.08;18.92
61963;BME280;47927;42.646;23.096;2022-07-29T09:42:47;92383.41;;;42.91;18.61
61963;BME280;47927;42.646;23.096;2022-07-29T09:47:53;92387.88;;;43.31;17.17
61963;BME280;47927;42.646;23.096;2022-07-29T09:50:20;92376.78;;;42.94;17.21
61963;BME280;47927;42.646;23.096;2022-07-29T09:52:51;92376.97;;;42.96;17.94
61963;BME280;47927;42.646;23.096;2022-07-29T09:55:17;92376.69;;;43.19;17.80
61963;BME280;47927;42.646;23.096;2022-07-29T09:57:45;92370.50;;;42.84;17.08
61963;BME280;47927;42.646;23.096;2022-07-29T10:00:18;92369.41;;;42.87;17.32
61963;BME280;47927;42.646;23.096;2022-07-29T10:02:45;92371.31;;;42.76;16.81
61963;BME280;47927;42.646;23.096;2022-07-29T10:05:22;92359.09;;;41.85;17.78
61963;BME280;47927;42.646;23.096;2022-07-29T10:07:53;92365.03;;;41.99;17.60
61963;BME280;47927;42.646;23.096;2022-07-29T10:10:30;92367.50;;;41.54;18.16
61963;BME280;47927;42.646;23.096;2022-07-29T10:12:58;92364.00;;;41.21;19.13
61963;BME280;47927;42.646;23.096;2022-07-29T10:15:27;92354.56;;;40.36;20.61
61963;BME280;47927;42.646;23.096;2022-07-29T10:17:54;92353.44;;;40.00;18.79
61963;BME280;47927;42.646;23.096;2022-07-29T10:20:21;92349.25;;;39.09;20.20
61963;BME280;47927;42.646;23.096;2022-07-29T10:22:48;92339.88;;;36.93;23.13
61963;BME280;47927;42.646;23.096;2022-07-29T10:25:15;92341.50;;;37.23;23.29
61963;BME280;47927;42.646;23.096;2022-07-29T10:27:41;92341.66;;;37.51;22.49
61963;BME280;47927;42.646;23.096;2022-07-29T10:30:08;92334.28;;;36.78;23.52
61963;BME280;47927;42.646;23.096;2022-07-29T10:32:47;92328.22;;;36.58;22.42
61963;BME280;47927;42.646;23.096;2022-07-29T10:35:57;92327.16;;;36.88;22.92
61963;BME280;47927;42.646;23.096;2022-07-29T10:44:18;92328.56;;;37.71;22.14
61963;BME280;47927;42.646;23.096;2022-07-29T10:46:45;92318.72;;;37.81;21.58
61963;BME280;47927;42.646;23.096;2022-07-29T10:49:36;92315.66;;;36.95;24.33
61963;BME280;47927;42.646;23.096;2022-07-29T10:52:09;92314.19;;;35.88;23.94
61963;BME280;47927;42.646;23.096;2022-07-29T10:54:43;92303.91;;;36.13;24.21
61963;BME280;47927;42.646;23.096;2022-07-29T10:57:16;92311.50;;;36.41;23.78
61963;BME280;47927;42.646;23.096;2022-07-29T10:59:44;92295.44;;;36.69;23.04
61963;BME280;47927;42.646;23.096;2022-07-29T11:07:27;92305.72;;;37.11;23.29
61963;BME280;47927;42.646;23.096;2022-07-29T11:15:10;92301.97;;;35.17;24.59
61963;BME280;47927;42.646;23.096;2022-07-29T11:20:40;92292.66;;;35.63;23.64
61963;BME280;47927;42.646;23.096;2022-07-29T11:28:52;92291.69;;;36.72;22.30
61963;BME280;47927;42.646;23.096;2022-07-29T11:31:40;92287.09;;;36.67;23.45
61963;BME280;47927;42.646;23.096;2022-07-29T11:34:38;92291.06;;;36.13;24.06
61963;BME280;47927;42.646;23.096;2022-07-29T11:39:36;92286.13;;;35.85;25.05
61963;BME280;47927;42.646;23.096;2022-07-29T11:47:22;92278.34;;;35.30;23.98
61963;BME280;47927;42.646;23.096;2022-07-29T11:49:48;92265.06;;;35.46;23.11
61963;BME280;47927;42.646;23.096;2022-07-29T11:52:16;92272.34;;;35.05;26.65
61963;BME280;47927;42.646;23.096;2022-07-29T11:54:42;92261.63;;;34.94;24.03
61963;BME280;47927;42.646;23.096;2022-07-29T11:57:08;92264.03;;;34.98;26.43
61963;BME280;47927;42.646;23.096;2022-07-29T11:59:41;92265.81;;;35.14;24.73
61963;BME280;47927;42.646;23.096;2022-07-29T12:02:07;92270.56;;;34.89;24.78
61963;BME280;47927;42.646;23.096;2022-07-29T12:04:47;92269.63;;;35.05;27.79
61963;BME280;47927;42.646;23.096;2022-07-29T12:07:13;92265.94;;;35.03;27.07
61963;BME280;47927;42.646;23.096;2022-07-29T12:09:38;92270.56;;;34.89;25.80
61963;BME280;47927;42.646;23.096;2022-07-29T12:12:04;92265.53;;;34.99;27.40
61963;BME280;47927;42.646;23.096;2022-07-29T12:14:32;92266.31;;;34.93;26.82
61963;BME280;47927;42.646;23.096;2022-07-29T12:16:59;92265.53;;;34.80;26.14
61963;BME280;47927;42.646;23.096;2022-07-29T12:19:26;92273.03;;;34.49;26.90
61963;BME280;47927;42.646;23.096;2022-07-29T12:21:54;92277.72;;;34.48;27.54
61963;BME280;47927;42.646;23.096;2022-07-29T12:24:20;92267.34;;;33.79;28.02
61963;BME280;47927;42.646;23.096;2022-07-29T12:26:58;92268.50;;;33.89;26.75
61963;BME280;47927;42.646;23.096;2022-07-29T12:29:25;92250.66;;;34.05;26.12
61963;BME280;47927;42.646;23.096;2022-07-29T12:31:53;92256.22;;;32.92;29.38
61963;BME280;47927;42.646;23.096;2022-07-29T12:34:20;92257.59;;;33.40;27.26
61963;BME280;47927;42.646;23.096;2022-07-29T12:36:48;92250.59;;;34.11;26.03
61963;BME280;47927;42.646;23.096;2022-07-29T12:39:15;92257.09;;;34.83;24.54
61963;BME280;47927;42.646;23.096;2022-07-29T12:41:41;92250.00;;;34.42;25.21
61963;BME280;47927;42.646;23.096;2022-07-29T12:44:07;92253.75;;;33.90;27.09
61963;BME280;47927;42.646;23.096;2022-07-29T12:46:33;92248.81;;;34.38;27.54
61963;BME280;47927;42.646;23.096;2022-07-29T12:48:58;92250.50;;;33.67;27.83
61963;BME280;47927;42.646;23.096;2022-07-29T12:51:32;92248.63;;;32.38;28.67
61963;BME280;47927;42.646;23.096;2022-07-29T12:54:17;92250.41;;;32.18;30.10
61963;BME280;47927;42.646;23.096;2022-07-29T12:56:43;92245.19;;;32.43;30.57
61963;BME280;47927;42.646;23.096;2022-07-29T12:59:17;92240.53;;;32.49;29.87
61963;BME280;47927;42.646;23.096;2022-07-29T13:01:44;92234.47;;;32.79;28.92
61963;BME280;47927;42.646;23.096;2022-07-29T13:04:09;92233.66;;;32.89;28.44
61963;BME280;47927;42.646;23.096;2022-07-29T13:06:45;92242.31;;;33.18;27.92
61963;BME280;47927;42.646;23.096;2022-07-29T13:09:16;92235.31;;;33.34;27.54
61963;BME280;47927;42.646;23.096;2022-07-29T13:11:45;92228.78;;;32.88;29.25
61963;BME280;47927;42.646;23.096;2022-07-29T13:14:14;92234.88;;;32.47;28.93
61963;BME280;47927;42.646;23.096;2022-07-29T13:22:09;92218.72;;;32.47;29.31
61963;BME280;47927;42.646;23.096;2022-07-29T13:24:54;92222.47;;;32.74;29.45
61963;BME280;47927;42.646;23.096;2022-07-29T13:27:25;92218.66;;;32.58;28.35
61963;BME280;47927;42.646;23.096;2022-07-29T13:29:52;92208.94;;;32.80;28.70
61963;BME280;47927;42.646;23.096;2022-07-29T13:32:21;92209.03;;;32.68;29.01
61963;BME280;47927;42.646;23.096;2022-07-29T13:34:46;92202.75;;;32.90;29.50
61963;BME280;47927;42.646;23.096;2022-07-29T13:37:12;92216.91;;;32.03;29.71
61963;BME280;47927;42.646;23.096;2022-07-29T13:39:38;92204.28;;;31.58;29.85
61963;BME280;47927;42.646;23.096;2022-07-29T13:42:04;92198.13;;;31.69;31.08
61963;BME280;47927;42.646;23.096;2022-07-29T13:44:31;92204.78;;;31.62;32.66
61963;BME280;47927;42.646;23.096;2022-07-29T13:46:56;92209.81;;;30.48;33.60
61963;BME280;47927;42.646;23.096;2022-07-29T13:49:24;92203.03;;;29.98;33.61
61963;BME280;47927;42.646;23.096;2022-07-29T13:51:50;92207.63;;;29.81;33.43